sensor_id;sensor_type;location;lat;lon;timestamp;pressure;altitude;pressure_sealevel;temperature;humidity
40073;BME280;25774;52.256;9.356;2022-11-20T00:00:54;100080.41;;;-3.98;100.00
40073;BME280;25774;52.256;9.356;2022-11-20T00:03:19;100070.97;;;-4.10;100.00
40073;BME280;25774;52.256;9.356;2022-11-20T00:05:45;100066.69;;;-4.14;100.00
40073;BME280;25774;52.256;9.356;2022-11-20T00:08:11;100076.97;;;-4.12;100.00
40073;BME280;25774;52.256;9.356;2022-11-20T00:10:37;100075.25;;;-4.12;100.00
40073;BME280;25774;52.256;9.356;2022-11-20T00:13:03;100069.25;;;-4.14;100.00
40073;BME280;25774;52.256;9.356;2022-11-20T00:15:29;100076.13;;;-4.24;100.00
40073;BME280;25774;52.256;9.356;2022-11-20T00:17:54;100081.28;;;-4.21;100.00
40073;BME280;25774;52.256;9.356;2022-11-20T00:20:19;100085.56;;;-4.16;100.00
40073;BME280;25774;52.256;9.356;2022-11-20T00:22:46;100080.41;;;-4.15;100.00
40073;BME280;25774;52.256;9.356;2022-11-20T00:25:11;100082.13;;;-4.17;100.00
40073;BME280;25774;52.256;9.356;2022-11-20T00:27:36;100078.72;;;-4.21;100.00
40073;BME280;25774;52.256;9.356;2022-11-20T00:30:03;100085.56;;;-4.19;100.00
40073;BME280;25774;52.256;9.356;2022-11-20T00:32:28;100095.88;;;-4.09;100.00
40073;BME280;25774;52.256;9.356;2022-11-20T00:34:54;100089.00;;;-4.10;100.00
40073;BME280;25774;52.256;9.356;2022-11-20T00:37:19;100095.88;;;-4.01;100.00
40073;BME280;25774;52.256;9.356;2022-11-20T00:39:44;100096.72;;;-3.94;100.00
40073;BME280;25774;52.256;9.356;2022-11-20T00:42:10;100076.09;;;-4.02;100.00
40073;BME280;25774;52.256;9.356;2022-11-20T00:44:35;100075.25;;;-4.06;100.00
40073;BME280;25774;52.256;9.356;2022-11-20T00:47:00;100083.81;;;-3.96;100.00
40073;BME280;25774;52.256;9.356;2022-11-20T00:49:26;100070.97;;;-4.21;100.00
40073;BME280;25774;52.256;9.356;2022-11-20T00:51:51;100062.41;;;-4.30;100.00
40073;BME280;25774;52.256;9.356;2022-11-20T00:54:16;100067.56;;;-4.33;100.00
40073;BME280;25774;52.256;9.356;2022-11-20T00:56:43;100077.00;;;-4.26;100.00
40073;BME280;25774;52.256;9.356;2022-11-20T00:59:08;100090.72;;;-4.03;100.00
40073;BME280;25774;52.256;9.356;2022-11-20T01:01:34;100089.84;;;-4.03;100.00
40073;BME280;25774;52.256;9.356;2022-11-20T01:03:59;100088.97;;;-3.96;100.00
40073;BME280;25774;52.256;9.356;2022-11-20T01:06:28;100095.00;;;-3.88;100.00
40073;BME280;25774;52.256;9.356;2022-11-20T01:08:56;100090.69;;;-3.90;100.00
40073;BME280;25774;52.256;9.356;2022-11-20T01:11:26;100080.41;;;-4.04;100.00
40073;BME280;25774;52.256;9.356;2022-11-20T01:13:53;100071.84;;;-4.11;100.00
40073;BME280;25774;52.256;9.356;2022-11-20T01:18:50;100064.97;;;-4.33;100.00
40073;BME280;25774;52.256;9.356;2022-11-20T01:21:24;100087.28;;;-4.05;100.00
40073;BME280;25774;52.256;9.356;2022-11-20T01:23:51;100088.13;;;-3.98;100.00
40073;BME280;25774;52.256;9.356;2022-11-20T01:26:18;100089.84;;;-3.92;100.00
40073;BME280;25774;52.256;9.356;2022-11-20T01:28:43;100074.38;;;-4.00;100.00
40073;BME280;25774;52.256;9.356;2022-11-20T01:31:16;100070.13;;;-4.16;100.00
40073;BME280;25774;52.256;9.356;2022-11-20T01:33:42;100064.09;;;-4.22;100.00
40073;BME280;25774;52.256;9.356;2022-11-20T01:36:09;100061.50;;;-4.25;100.00
40073;BME280;25774;52.256;9.356;2022-11-20T01:38:42;100064.97;;;-4.19;100.00
40073;BME280;25774;52.256;9.356;2022-11-20T01:41:10;100055.53;;;-4.27;100.00
40073;BME280;25774;52.256;9.356;2022-11-20T01:43:36;100050.38;;;-4.36;100.00
40073;BME280;25774;52.256;9.356;2022-11-20T01:46:15;100058.94;;;-4.22;100.00
40073;BME280;25774;52.256;9.356;2022-11-20T01:48:54;100052.94;;;-4.25;100.00
40073;BME280;25774;52.256;9.356;2022-11-20T01:53:54;100045.22;;;-4.27;100.00
40073;BME280;25774;52.256;9.356;2022-11-20T01:56:22;100059.81;;;-4.23;100.00
40073;BME280;25774;52.256;9.356;2022-11-20T01:58:51;100051.22;;;-4.23;100.00
40073;BME280;25774;52.256;9.356;2022-11-20T02:01:18;100046.94;;;-4.27;100.00
40073;BME280;25774;52.256;9.356;2022-11-20T02:03:43;100042.63;;;-4.25;100.00
40073;BME280;25774;52.256;9.356;2022-11-20T02:06:39;100046.94;;;-4.23;100.00
40073;BME280;25774;52.256;9.356;2022-11-20T02:09:06;100042.66;;;-4.24;100.00
40073;BME280;25774;52.256;9.356;2022-11-20T02:11:31;100026.31;;;-4.44;100.00
40073;BME280;25774;52.256;9.356;2022-11-20T02:13:58;100029.78;;;-4.42;100.00
40073;BME280;25774;52.256;9.356;2022-11-20T02:16:27;100046.94;;;-4.38;100.00
40073;BME280;25774;52.256;9.356;2022-11-20T02:18:56;100047.81;;;-4.30;100.00
40073;BME280;25774;52.256;9.356;2022-11-20T02:21:27;100040.94;;;-4.38;100.00
40073;BME280;25774;52.256;9.356;2022-11-20T02:24:11;100034.06;;;-4.32;100.00
40073;BME280;25774;52.256;9.356;2022-11-20T02:26:50;100028.91;;;-4.35;100.00
40073;BME280;25774;52.256;9.356;2022-11-20T02:29:20;100011.72;;;-4.44;100.00
40073;BME280;25774;52.256;9.356;2022-11-20T02:31:48;100014.34;;;-4.56;100.00
40073;BME280;25774;52.256;9.356;2022-11-20T02:34:13;100018.63;;;-4.58;100.00
40073;BME280;25774;52.256;9.356;2022-11-20T02:36:40;100025.47;;;-4.54;100.00
40073;BME280;25774;52.256;9.356;2022-11-20T02:39:09;100028.06;;;-4.45;100.00
40073;BME280;25774;52.256;9.356;2022-11-20T02:41:37;100024.63;;;-4.48;100.00
40073;BME280;25774;52.256;9.356;2022-11-20T02:44:04;100011.75;;;-4.60;100.00
40073;BME280;25774;52.256;9.356;2022-11-20T02:46:31;100011.75;;;-4.67;100.00
40073;BME280;25774;52.256;9.356;2022-11-20T02:48:56;100022.91;;;-4.51;100.00
40073;BME280;25774;52.256;9.356;2022-11-20T02:51:24;100019.47;;;-4.51;100.00
40073;BME280;25774;52.256;9.356;2022-11-20T02:53:50;100028.06;;;-4.34;100.00
40073;BME280;25774;52.256;9.356;2022-11-20T02:56:15;100028.03;;;-4.18;100.00
40073;BME280;25774;52.256;9.356;2022-11-20T02:58:41;100018.59;;;-4.24;100.00
40073;BME280;25774;52.256;9.356;2022-11-20T03:01:07;100030.59;;;-4.05;100.00
40073;BME280;25774;52.256;9.356;2022-11-20T03:03:32;100029.69;;;-3.96;100.00
40073;BME280;25774;52.256;9.356;2022-11-20T03:06:01;100019.41;;;-4.02;100.00
40073;BME280;25774;52.256;9.356;2022-11-20T03:08:26;100009.97;;;-4.05;100.00
40073;BME280;25774;52.256;9.356;2022-11-20T03:10:54;100004.00;;;-4.17;100.00
40073;BME280;25774;52.256;9.356;2022-11-20T03:13:20;100000.56;;;-4.32;100.00
40073;BME280;25774;52.256;9.356;2022-11-20T03:15:45;99999.72;;;-4.29;100.00
40073;BME280;25774;52.256;9.356;2022-11-20T03:18:11;99996.25;;;-4.28;100.00
40073;BME280;25774;52.256;9.356;2022-11-20T03:20:38;99986.84;;;-4.40;100.00
40073;BME280;25774;52.256;9.356;2022-11-20T03:23:05;99981.69;;;-4.38;100.00
40073;BME280;25774;52.256;9.356;2022-11-20T03:25:31;99983.41;;;-4.36;100.00
40073;BME280;25774;52.256;9.356;2022-11-20T03:27:56;99984.28;;;-4.45;100.00
40073;BME280;25774;52.256;9.356;2022-11-20T03:30:23;99995.44;;;-4.30;100.00
40073;BME280;25774;52.256;9.356;2022-11-20T03:32:48;99990.25;;;-4.19;100.00
40073;BME280;25774;52.256;9.356;2022-11-20T03:35:13;99983.38;;;-4.24;100.00
40073;BME280;25774;52.256;9.356;2022-11-20T03:37:38;99983.41;;;-4.36;100.00
40073;BME280;25774;52.256;9.356;2022-11-20T03:40:04;99989.38;;;-4.18;100.00
40073;BME280;25774;52.256;9.356;2022-11-20T03:42:30;99980.78;;;-4.19;100.00
40073;BME280;25774;52.256;9.356;2022-11-20T03:45:11;99980.81;;;-4.36;100.00
40073;BME280;25774;52.256;9.356;2022-11-20T03:47:37;99970.50;;;-4.24;100.00
40073;BME280;25774;52.256;9.356;2022-11-20T03:50:03;99982.53;;;-4.21;100.00
40073;BME280;25774;52.256;9.356;2022-11-20T03:52:28;99973.09;;;-4.30;100.00
40073;BME280;25774;52.256;9.356;2022-11-20T03:54:54;99973.09;;;-4.33;100.00
40073;BME280;25774;52.256;9.356;2022-11-20T03:57:19;99973.09;;;-4.39;100.00
40073;BME280;25774;52.256;9.356;2022-11-20T03:59:44;99968.78;;;-4.31;100.00
40073;BME280;25774;52.256;9.356;2022-11-20T04:02:10;99954.22;;;-4.56;100.00
40073;BME280;25774;52.256;9.356;2022-11-20T04:04:35;99958.53;;;-4.58;100.00
40073;BME280;25774;52.256;9.356;2022-11-20T04:07:00;99966.25;;;-4.37;100.00
40073;BME280;25774;52.256;9.356;2022-11-20T04:09:26;99964.50;;;-4.41;100.00
40073;BME280;25774;52.256;9.356;2022-11-20T04:11:51;99967.97;;;-4.48;100.00
40073;BME280;25774;52.256;9.356;2022-11-20T04:14:16;99979.13;;;-4.41;100.00
40073;BME280;25774;52.256;9.356;2022-11-20T04:16:42;99969.69;;;-4.39;100.00
40073;BME280;25774;52.256;9.356;2022-11-20T04:19:15;99976.56;;;-4.40;100.00
40073;BME280;25774;52.256;9.356;2022-11-20T04:21:41;99952.53;;;-4.68;100.00
40073;BME280;25774;52.256;9.356;2022-11-20T04:24:08;99961.13;;;-4.74;100.00
40073;BME280;25774;52.256;9.356;2022-11-20T04:26:35;99964.56;;;-4.78;100.00
40073;BME280;25774;52.256;9.356;2022-11-20T04:29:01;99969.69;;;-4.64;100.00
40073;BME280;25774;52.256;9.356;2022-11-20T04:31:33;99973.13;;;-4.57;100.00
40073;BME280;25774;52.256;9.356;2022-11-20T04:34:04;99976.56;;;-4.63;100.00
40073;BME280;25774;52.256;9.356;2022-11-20T04:36:31;99981.69;;;-4.45;100.00
40073;BME280;25774;52.256;9.356;2022-11-20T04:39:03;99985.97;;;-4.36;100.00
40073;BME280;25774;52.256;9.356;2022-11-20T04:41:31;99977.41;;;-4.44;100.00
40073;BME280;25774;52.256;9.356;2022-11-20T04:43:59;99973.97;;;-4.40;100.00
40073;BME280;25774;52.256;9.356;2022-11-20T04:46:28;99979.06;;;-4.22;100.00
40073;BME280;25774;52.256;9.356;2022-11-20T04:48:54;99980.81;;;-4.21;100.00
40073;BME280;25774;52.256;9.356;2022-11-20T04:51:20;99978.22;;;-4.08;100.00
40073;BME280;25774;52.256;9.356;2022-11-20T04:53:46;99972.16;;;-4.06;100.00
40073;BME280;25774;52.256;9.356;2022-11-20T04:56:12;99974.75;;;-4.04;100.00
40073;BME280;25774;52.256;9.356;2022-11-20T04:58:38;99970.44;;;-4.05;100.00
40073;BME280;25774;52.256;9.356;2022-11-20T05:01:12;99951.56;;;-4.18;100.00
40073;BME280;25774;52.256;9.356;2022-11-20T05:03:42;99954.13;;;-4.04;100.00
40073;BME280;25774;52.256;9.356;2022-11-20T05:06:09;99958.41;;;-4.06;100.00
40073;BME280;25774;52.256;9.356;2022-11-20T05:08:35;99952.41;;;-4.07;100.00
40073;BME280;25774;52.256;9.356;2022-11-20T05:11:05;99941.28;;;-4.18;100.00
40073;BME280;25774;52.256;9.356;2022-11-20T05:13:31;99940.47;;;-4.38;100.00
40073;BME280;25774;52.256;9.356;2022-11-20T05:16:04;99961.88;;;-4.07;100.00
40073;BME280;25774;52.256;9.356;2022-11-20T05:18:30;99961.03;;;-4.15;100.00
40073;BME280;25774;52.256;9.356;2022-11-20T05:20:57;99944.75;;;-4.27;100.00
40073;BME280;25774;52.256;9.356;2022-11-20T05:23:23;99946.47;;;-4.29;100.00
40073;BME280;25774;52.256;9.356;2022-11-20T05:25:54;99942.19;;;-4.30;100.00
40073;BME280;25774;52.256;9.356;2022-11-20T05:28:20;99934.44;;;-4.34;100.00
40073;BME280;25774;52.256;9.356;2022-11-20T05:30:46;99947.34;;;-4.39;100.00
40073;BME280;25774;52.256;9.356;2022-11-20T05:33:11;99943.94;;;-4.42;100.00
40073;BME280;25774;52.256;9.356;2022-11-20T05:35:36;99954.19;;;-4.26;100.00
40073;BME280;25774;52.256;9.356;2022-11-20T05:38:02;99944.75;;;-4.24;100.00
40073;BME280;25774;52.256;9.356;2022-11-20T05:40:27;99947.31;;;-4.24;100.00
40073;BME280;25774;52.256;9.356;2022-11-20T05:42:53;99954.16;;;-4.19;100.00
40073;BME280;25774;52.256;9.356;2022-11-20T05:45:19;99943.00;;;-4.25;100.00
40073;BME280;25774;52.256;9.356;2022-11-20T05:47:44;99955.88;;;-4.22;100.00
40073;BME280;25774;52.256;9.356;2022-11-20T05:50:09;99967.00;;;-4.06;100.00
40073;BME280;25774;52.256;9.356;2022-11-20T05:52:35;99961.84;;;-4.03;100.00
40073;BME280;25774;52.256;9.356;2022-11-20T05:55:00;99968.75;;;-4.09;100.00
40073;BME280;25774;52.256;9.356;2022-11-20T05:57:25;99955.84;;;-4.03;100.00
40073;BME280;25774;52.256;9.356;2022-11-20T05:59:51;99955.88;;;-4.12;100.00
40073;BME280;25774;52.256;9.356;2022-11-20T06:02:16;99958.44;;;-4.05;100.00
40073;BME280;25774;52.256;9.356;2022-11-20T06:04:42;99962.66;;;-3.93;100.00
40073;BME280;25774;52.256;9.356;2022-11-20T06:07:07;99968.72;;;-3.92;100.00
40073;BME280;25774;52.256;9.356;2022-11-20T06:09:33;99966.09;;;-3.85;100.00
40073;BME280;25774;52.256;9.356;2022-11-20T06:11:58;99968.63;;;-3.80;100.00
40073;BME280;25774;52.256;9.356;2022-11-20T06:14:23;99968.66;;;-3.86;100.00
40073;BME280;25774;52.256;9.356;2022-11-20T06:16:49;99973.78;;;-3.72;100.00
40073;BME280;25774;52.256;9.356;2022-11-20T06:19:14;99983.22;;;-3.68;100.00
40073;BME280;25774;52.256;9.356;2022-11-20T06:21:40;99968.53;;;-3.56;100.00
40073;BME280;25774;52.256;9.356;2022-11-20T06:24:06;99964.22;;;-3.47;100.00
40073;BME280;25774;52.256;9.356;2022-11-20T06:26:31;99966.78;;;-3.47;100.00
40073;BME280;25774;52.256;9.356;2022-11-20T06:28:56;99951.38;;;-3.64;100.00
40073;BME280;25774;52.256;9.356;2022-11-20T06:31:24;99977.91;;;-3.39;100.00
40073;BME280;25774;52.256;9.356;2022-11-20T06:33:50;99963.28;;;-3.42;100.00
40073;BME280;25774;52.256;9.356;2022-11-20T06:36:18;99973.56;;;-3.31;100.00
40073;BME280;25774;52.256;9.356;2022-11-20T06:38:43;99973.53;;;-3.25;100.00
40073;BME280;25774;52.256;9.356;2022-11-20T06:41:15;99961.53;;;-3.32;100.00
40073;BME280;25774;52.256;9.356;2022-11-20T06:43:44;99965.78;;;-3.22;100.00
40073;BME280;25774;52.256;9.356;2022-11-20T06:46:12;99964.94;;;-3.27;100.00
40073;BME280;25774;52.256;9.356;2022-11-20T06:48:38;99966.59;;;-3.20;100.00
40073;BME280;25774;52.256;9.356;2022-11-20T06:51:05;99969.09;;;-3.03;100.00
40073;BME280;25774;52.256;9.356;2022-11-20T06:53:31;99956.25;;;-3.12;100.00
40073;BME280;25774;52.256;9.356;2022-11-20T06:55:58;99954.63;;;-3.27;100.00
40073;BME280;25774;52.256;9.356;2022-11-20T06:58:28;99956.28;;;-3.15;100.00
40073;BME280;25774;52.256;9.356;2022-11-20T07:00:58;99952.91;;;-3.25;100.00
40073;BME280;25774;52.256;9.356;2022-11-20T07:03:23;99974.25;;;-3.05;100.00
40073;BME280;25774;52.256;9.356;2022-11-20T07:05:51;99970.84;;;-3.08;100.00
40073;BME280;25774;52.256;9.356;2022-11-20T07:08:16;99969.88;;;-2.95;100.00
40073;BME280;25774;52.256;9.356;2022-11-20T07:10:42;99962.25;;;-3.10;100.00
40073;BME280;25774;52.256;9.356;2022-11-20T07:13:07;99951.03;;;-3.08;100.00
40073;BME280;25774;52.256;9.356;2022-11-20T07:15:32;99950.16;;;-3.02;100.00
40073;BME280;25774;52.256;9.356;2022-11-20T07:17:59;99946.72;;;-3.07;100.00
40073;BME280;25774;52.256;9.356;2022-11-20T07:20:25;99964.63;;;-2.84;100.00
40073;BME280;25774;52.256;9.356;2022-11-20T07:22:54;99970.56;;;-2.74;100.00
40073;BME280;25774;52.256;9.356;2022-11-20T07:25:20;99964.47;;;-2.66;100.00
40073;BME280;25774;52.256;9.356;2022-11-20T07:27:45;99946.56;;;-2.84;100.00
40073;BME280;25774;52.256;9.356;2022-11-20T07:30:11;99953.38;;;-2.74;100.00
40073;BME280;25774;52.256;9.356;2022-11-20T07:32:37;99933.84;;;-3.06;100.00
40073;BME280;25774;52.256;9.356;2022-11-20T07:35:03;99941.56;;;-3.07;100.00
40073;BME280;25774;52.256;9.356;2022-11-20T07:37:29;99924.50;;;-3.23;100.00
40073;BME280;25774;52.256;9.356;2022-11-20T07:39:54;99945.78;;;-2.97;100.00
40073;BME280;25774;52.256;9.356;2022-11-20T07:42:19;99962.78;;;-2.67;100.00
40073;BME280;25774;52.256;9.356;2022-11-20T07:44:45;99959.28;;;-2.58;100.00
40073;BME280;25774;52.256;9.356;2022-11-20T07:47:10;99938.88;;;-2.92;100.00
40073;BME280;25774;52.256;9.356;2022-11-20T07:49:35;99938.94;;;-2.96;100.00
40073;BME280;25774;52.256;9.356;2022-11-20T07:52:00;99938.13;;;-3.03;100.00
40073;BME280;25774;52.256;9.356;2022-11-20T07:54:26;99954.16;;;-2.66;100.00
40073;BME280;25774;52.256;9.356;2022-11-20T07:56:51;99957.66;;;-2.74;100.00
40073;BME280;25774;52.256;9.356;2022-11-20T07:59:16;99957.53;;;-2.58;100.00
40073;BME280;25774;52.256;9.356;2022-11-20T08:01:42;99937.31;;;-3.13;100.00
40073;BME280;25774;52.256;9.356;2022-11-20T08:04:08;99938.28;;;-3.24;100.00
40073;BME280;25774;52.256;9.356;2022-11-20T08:06:35;99959.50;;;-2.89;100.00
40073;BME280;25774;52.256;9.356;2022-11-20T08:09:00;99957.78;;;-2.88;100.00
40073;BME280;25774;52.256;9.356;2022-11-20T08:11:25;99967.13;;;-2.70;100.00
40073;BME280;25774;52.256;9.356;2022-11-20T08:14:09;99972.22;;;-2.61;100.00
40073;BME280;25774;52.256;9.356;2022-11-20T08:16:42;99981.50;;;-2.43;100.00
40073;BME280;25774;52.256;9.356;2022-11-20T08:19:08;99977.28;;;-2.53;100.00
40073;BME280;25774;52.256;9.356;2022-11-20T08:21:34;99948.34;;;-2.94;100.00
40073;BME280;25774;52.256;9.356;2022-11-20T08:23:59;99972.25;;;-2.69;100.00
40073;BME280;25774;52.256;9.356;2022-11-20T08:26:26;99968.84;;;-2.71;100.00
40073;BME280;25774;52.256;9.356;2022-11-20T08:28:55;99996.88;;;-2.26;100.00
40073;BME280;25774;52.256;9.356;2022-11-20T08:31:22;99986.59;;;-2.32;100.00
40073;BME280;25774;52.256;9.356;2022-11-20T08:33:47;99986.69;;;-2.45;100.00
40073;BME280;25774;52.256;9.356;2022-11-20T08:36:12;99979.03;;;-2.54;100.00
40073;BME280;25774;52.256;9.356;2022-11-20T08:38:38;99977.25;;;-2.47;100.00
40073;BME280;25774;52.256;9.356;2022-11-20T08:41:04;99982.34;;;-2.38;100.00
40073;BME280;25774;52.256;9.356;2022-11-20T08:44:09;99971.94;;;-2.34;100.00
40073;BME280;25774;52.256;9.356;2022-11-20T08:46:40;99970.16;;;-2.27;100.00
40073;BME280;25774;52.256;9.356;2022-11-20T08:49:08;99964.19;;;-2.34;100.00
40073;BME280;25774;52.256;9.356;2022-11-20T08:51:34;99966.78;;;-2.37;100.00
40073;BME280;25774;52.256;9.356;2022-11-20T08:54:00;99976.19;;;-2.28;100.00
40073;BME280;25774;52.256;9.356;2022-11-20T08:56:25;99992.25;;;-1.97;100.00
40073;BME280;25774;52.256;9.356;2022-11-20T08:58:51;99970.69;;;-1.96;100.00
40073;BME280;25774;52.256;9.356;2022-11-20T09:01:21;99962.25;;;-2.12;100.00
40073;BME280;25774;52.256;9.356;2022-11-20T09:03:48;99957.84;;;-2.05;100.00
40073;BME280;25774;52.256;9.356;2022-11-20T09:06:14;99963.81;;;-1.98;100.00
40073;BME280;25774;52.256;9.356;2022-11-20T09:08:39;99953.66;;;-2.14;100.00
40073;BME280;25774;52.256;9.356;2022-11-20T09:11:05;99953.59;;;-2.09;100.00
40073;BME280;25774;52.256;9.356;2022-11-20T09:13:32;99959.69;;;-2.13;100.00
40073;BME280;25774;52.256;9.356;2022-11-20T09:16:16;99958.84;;;-2.15;100.00
40073;BME280;25774;52.256;9.356;2022-11-20T09:18:41;99960.44;;;-2.05;100.00
40073;BME280;25774;52.256;9.356;2022-11-20T09:21:12;99977.13;;;-1.58;100.00
40073;BME280;25774;52.256;9.356;2022-11-20T09:23:39;99994.91;;;-1.32;100.00
40073;BME280;25774;52.256;9.356;2022-11-20T09:26:06;99984.25;;;-1.12;100.00
40073;BME280;25774;52.256;9.356;2022-11-20T09:28:32;99980.72;;;-1.05;100.00
40073;BME280;25774;52.256;9.356;2022-11-20T09:30:59;99952.19;;;-1.02;100.00
40073;BME280;25774;52.256;9.356;2022-11-20T09:33:24;99947.97;;;-1.07;100.00
40073;BME280;25774;52.256;9.356;2022-11-20T09:35:49;99946.34;;;-1.16;100.00
40073;BME280;25774;52.256;9.356;2022-11-20T09:38:15;99955.63;;;-1.01;100.00
40073;BME280;25774;52.256;9.356;2022-11-20T09:40:46;99946.25;;;-1.08;100.00
40073;BME280;25774;52.256;9.356;2022-11-20T09:43:18;99945.31;;;-1.04;100.00
40073;BME280;25774;52.256;9.356;2022-11-20T09:56:20;99914.00;;;-0.89;100.00
40073;BME280;25774;52.256;9.356;2022-11-20T09:58:51;99904.75;;;-1.04;100.00
40073;BME280;25774;52.256;9.356;2022-11-20T10:01:20;99910.81;;;-1.06;100.00
40073;BME280;25774;52.256;9.356;2022-11-20T10:03:59;99938.53;;;-0.57;100.00
40073;BME280;25774;52.256;9.356;2022-11-20T10:06:39;99934.19;;;-0.57;100.00
40073;BME280;25774;52.256;9.356;2022-11-20T10:17:15;99889.59;;;-0.29;100.00
40073;BME280;25774;52.256;9.356;2022-11-20T10:22:40;99900.03;;;-0.32;100.00
40073;BME280;25774;52.256;9.356;2022-11-20T10:30:23;99911.13;;;-0.24;100.00
40073;BME280;25774;52.256;9.356;2022-11-20T10:33:13;99906.03;;;0.15;100.00
40073;BME280;25774;52.256;9.356;2022-11-20T10:38:18;99901.94;;;0.43;100.00
40073;BME280;25774;52.256;9.356;2022-11-20T10:40:53;99891.31;;;0.54;100.00
40073;BME280;25774;52.256;9.356;2022-11-20T10:43:40;99861.91;;;0.15;100.00
40073;BME280;25774;52.256;9.356;2022-11-20T10:46:15;99866.50;;;0.04;100.00
40073;BME280;25774;52.256;9.356;2022-11-20T10:48:43;99845.31;;;-0.18;100.00
40073;BME280;25774;52.256;9.356;2022-11-20T10:56:40;99873.31;;;0.46;100.00
40073;BME280;25774;52.256;9.356;2022-11-20T10:59:44;99869.75;;;0.89;100.00
40073;BME280;25774;52.256;9.356;2022-11-20T11:02:22;99850.38;;;1.01;100.00
40073;BME280;25774;52.256;9.356;2022-11-20T11:04:53;99834.00;;;0.99;100.00
40073;BME280;25774;52.256;9.356;2022-11-20T11:07:35;99838.22;;;1.03;100.00
40073;BME280;25774;52.256;9.356;2022-11-20T11:10:16;99811.72;;;0.89;100.00
40073;BME280;25774;52.256;9.356;2022-11-20T11:12:47;99820.72;;;1.10;100.00
40073;BME280;25774;52.256;9.356;2022-11-20T11:15:27;99802.31;;;0.85;100.00
40073;BME280;25774;52.256;9.356;2022-11-20T11:17:53;99791.00;;;0.87;100.00
40073;BME280;25774;52.256;9.356;2022-11-20T11:20:24;99778.91;;;0.86;100.00
40073;BME280;25774;52.256;9.356;2022-11-20T11:22:56;99781.06;;;1.02;100.00
40073;BME280;25774;52.256;9.356;2022-11-20T11:25:33;99794.44;;;1.21;100.00
40073;BME280;25774;52.256;9.356;2022-11-20T11:28:18;99787.84;;;1.09;100.00
40073;BME280;25774;52.256;9.356;2022-11-20T11:30:45;99777.81;;;1.28;100.00
40073;BME280;25774;52.256;9.356;2022-11-20T11:33:19;99781.50;;;1.50;100.00
40073;BME280;25774;52.256;9.356;2022-11-20T11:35:47;99761.16;;;1.33;100.00
40073;BME280;25774;52.256;9.356;2022-11-20T11:38:22;99765.53;;;1.33;100.00
40073;BME280;25774;52.256;9.356;2022-11-20T11:40:54;99742.25;;;0.97;100.00
40073;BME280;25774;52.256;9.356;2022-11-20T11:43:22;99737.97;;;0.95;100.00
40073;BME280;25774;52.256;9.356;2022-11-20T11:46:24;99771.81;;;1.55;100.00
40073;BME280;25774;52.256;9.356;2022-11-20T11:49:08;99753.84;;;1.48;100.00
40073;BME280;25774;52.256;9.356;2022-11-20T11:54:28;99750.91;;;1.60;100.00
40073;BME280;25774;52.256;9.356;2022-11-20T11:56:55;99750.84;;;1.61;100.00
40073;BME280;25774;52.256;9.356;2022-11-20T11:59:51;99743.53;;;1.45;100.00
40073;BME280;25774;52.256;9.356;2022-11-20T12:04:58;99745.19;;;1.47;100.00
40073;BME280;25774;52.256;9.356;2022-11-20T12:10:16;99758.13;;;1.78;100.00
40073;BME280;25774;52.256;9.356;2022-11-20T12:12:48;99738.78;;;1.89;100.00
40073;BME280;25774;52.256;9.356;2022-11-20T12:15:29;99711.94;;;1.86;100.00
40073;BME280;25774;52.256;9.356;2022-11-20T12:17:55;99709.00;;;1.97;100.00
40073;BME280;25774;52.256;9.356;2022-11-20T12:20:24;99685.28;;;1.80;100.00
40073;BME280;25774;52.256;9.356;2022-11-20T12:23:12;99688.41;;;1.61;100.00
40073;BME280;25774;52.256;9.356;2022-11-20T12:25:43;99685.16;;;1.55;100.00
40073;BME280;25774;52.256;9.356;2022-11-20T12:30:52;99716.28;;;1.58;100.00
40073;BME280;25774;52.256;9.356;2022-11-20T12:33:35;99704.06;;;1.30;100.00
40073;BME280;25774;52.256;9.356;2022-11-20T12:36:19;99725.78;;;1.59;100.00
40073;BME280;25774;52.256;9.356;2022-11-20T12:41:51;99701.22;;;2.24;100.00
40073;BME280;25774;52.256;9.356;2022-11-20T12:44:51;99703.91;;;2.47;100.00
40073;BME280;25774;52.256;9.356;2022-11-20T12:50:15;99673.06;;;2.35;100.00
40073;BME280;25774;52.256;9.356;2022-11-20T12:52:49;99681.06;;;2.30;100.00
40073;BME280;25774;52.256;9.356;2022-11-20T12:55:23;99692.69;;;2.72;100.00
40073;BME280;25774;52.256;9.356;2022-11-20T12:57:54;99676.66;;;2.83;100.00
40073;BME280;25774;52.256;9.356;2022-11-20T13:00:22;99664.56;;;2.82;100.00
40073;BME280;25774;52.256;9.356;2022-11-20T13:05:58;99692.56;;;3.00;100.00
40073;BME280;25774;52.256;9.356;2022-11-20T13:08:27;99644.44;;;2.60;100.00
40073;BME280;25774;52.256;9.356;2022-11-20T13:11:18;99638.97;;;2.68;100.00
40073;BME280;25774;52.256;9.356;2022-11-20T13:16:52;99655.06;;;3.04;100.00
40073;BME280;25774;52.256;9.356;2022-11-20T13:19:20;99628.69;;;2.88;100.00
40073;BME280;25774;52.256;9.356;2022-11-20T13:21:47;99603.16;;;2.98;100.00
40073;BME280;25774;52.256;9.356;2022-11-20T13:26:59;99625.25;;;3.11;100.00
40073;BME280;25774;52.256;9.356;2022-11-20T13:29:24;99589.25;;;2.74;100.00
40073;BME280;25774;52.256;9.356;2022-11-20T13:31:50;99593.78;;;2.69;100.00
40073;BME280;25774;52.256;9.356;2022-11-20T13:34:26;99622.84;;;3.05;100.00
40073;BME280;25774;52.256;9.356;2022-11-20T13:36:57;99594.41;;;2.75;100.00
40073;BME280;25774;52.256;9.356;2022-11-20T13:39:27;99537.66;;;2.12;100.00
40073;BME280;25774;52.256;9.356;2022-11-20T13:41:56;99579.84;;;2.21;100.00
40073;BME280;25774;52.256;9.356;2022-11-20T13:44:34;99594.91;;;2.12;100.00
40073;BME280;25774;52.256;9.356;2022-11-20T13:47:03;99597.50;;;2.12;100.00
40073;BME280;25774;52.256;9.356;2022-11-20T13:49:38;99612.97;;;2.41;100.00
40073;BME280;25774;52.256;9.356;2022-11-20T13:52:31;99576.38;;;2.46;100.00
40073;BME280;25774;52.256;9.356;2022-11-20T13:58:40;99563.00;;;2.55;100.00
40073;BME280;25774;52.256;9.356;2022-11-20T14:01:15;99569.44;;;2.45;100.00
40073;BME280;25774;52.256;9.356;2022-11-20T14:03:42;99575.56;;;2.69;100.00
40073;BME280;25774;52.256;9.356;2022-11-20T14:06:30;99557.13;;;2.25;100.00
40073;BME280;25774;52.256;9.356;2022-11-20T14:08:57;99562.94;;;2.08;100.00